createdAt,value
2019-01-21T00:02:04.327Z,98.87
2019-01-21T00:04:31.308Z,98.65
2019-01-21T00:06:58.264Z,97.91
2019-01-21T00:09:25.269Z,98.03
2019-01-21T00:11:52.227Z,98.31
2019-01-21T00:14:19.195Z,99.21
2019-01-21T00:16:46.178Z,99.53
2019-01-21T00:19:13.203Z,99.38
2019-01-21T00:21:40.172Z,99.78
2019-01-21T00:24:07.168Z,99.56
2019-01-21T00:26:34.083Z,99.42
2019-01-21T00:29:01.062Z,99.13
2019-01-21T00:31:27.992Z,99.39
2019-01-21T00:33:54.949Z,99.55
2019-01-21T00:36:21.859Z,99.95
2019-01-21T00:38:48.776Z,99.45
2019-01-21T00:41:15.770Z,100.00
2019-01-21T00:43:42.700Z,100.00
2019-01-21T00:46:09.708Z,100.00
2019-01-21T00:48:36.637Z,99.89
2019-01-21T00:51:03.650Z,100.00
2019-01-21T00:53:30.539Z,99.72
2019-01-21T00:55:57.490Z,99.43
2019-01-21T00:58:24.463Z,99.79
2019-01-21T01:00:51.529Z,100.00
2019-01-21T01:03:18.495Z,100.00
2019-01-21T01:05:45.515Z,100.00
2019-01-21T01:08:12.469Z,100.00
2019-01-21T01:10:39.491Z,100.00
2019-01-21T01:13:06.589Z,99.59
2019-01-21T01:15:33.582Z,99.59
2019-01-21T01:18:00.532Z,99.28
2019-01-21T01:20:27.600Z,99.28
2019-01-21T01:22:54.543Z,99.47
2019-01-21T01:25:21.614Z,99.63
2019-01-21T01:27:48.607Z,99.13
2019-01-21T01:30:16.618Z,99.13
2019-01-21T01:32:43.571Z,99.09
2019-01-21T01:35:12.229Z,99.19
2019-01-21T01:37:39.964Z,99.76
2019-01-21T01:40:10.193Z,99.95
2019-01-21T01:42:37.207Z,99.50
2019-01-21T01:45:04.894Z,99.50
2019-01-21T01:47:32.141Z,99.22
2019-01-21T01:49:59.226Z,99.11
2019-01-21T01:52:26.195Z,99.04
2019-01-21T01:54:53.216Z,97.95
2019-01-21T01:57:20.207Z,97.95
2019-01-21T01:59:47.309Z,98.64
2019-01-21T02:02:14.318Z,98.87
2019-01-21T02:04:41.441Z,98.89
2019-01-21T02:07:08.518Z,98.89
2019-01-21T02:09:35.463Z,98.65
2019-01-21T02:12:02.573Z,98.24
2019-01-21T02:14:29.500Z,98.30
2019-01-21T02:16:56.472Z,98.86
2019-01-21T02:19:25.871Z,99.59
2019-01-21T02:21:56.267Z,100.00
2019-01-21T02:24:25.070Z,99.91
2019-01-21T02:27:19.811Z,99.66
2019-01-21T02:30:17.488Z,99.73
2019-01-21T02:33:27.663Z,99.46
2019-01-21T02:36:21.787Z,98.76
2019-01-21T02:39:06.233Z,98.76
2019-01-21T02:41:46.395Z,99.37
2019-01-21T02:44:32.781Z,99.61
2019-01-21T02:47:26.656Z,99.18
2019-01-21T02:50:21.891Z,98.96
2019-01-21T02:53:22.044Z,100.00
2019-01-21T02:56:52.343Z,100.00
2019-01-21T03:00:07.317Z,99.47
2019-01-21T03:02:50.343Z,99.81
2019-01-21T03:05:43.024Z,100.00
2019-01-21T03:08:31.515Z,100.00
2019-01-21T03:11:49.248Z,100.00
2019-01-21T03:14:40.151Z,100.00
2019-01-21T03:17:49.214Z,100.00
2019-01-21T03:20:30.741Z,99.81
2019-01-21T03:23:44.311Z,99.25
2019-01-21T03:26:55.866Z,98.65
2019-01-21T03:29:47.975Z,98.15
2019-01-21T03:32:55.314Z,98.63
2019-01-21T03:36:04.342Z,98.63
2019-01-21T03:38:58.402Z,99.35
2019-01-21T03:41:50.233Z,99.35
2019-01-21T03:44:59.885Z,99.48
2019-01-21T03:48:00.945Z,99.48
2019-01-21T03:50:59.414Z,98.50
2019-01-21T03:54:14.737Z,98.53
2019-01-21T03:57:02.664Z,98.53
2019-01-21T03:59:48.115Z,97.96
2019-01-21T04:02:45.833Z,98.06
2019-01-21T04:05:49.791Z,98.06
2019-01-21T04:09:13.611Z,97.85
2019-01-21T04:12:05.946Z,98.00
2019-01-21T04:14:48.865Z,97.47
2019-01-21T04:17:59.626Z,97.47
2019-01-21T04:20:38.178Z,96.69
2019-01-21T04:23:47.649Z,96.59
2019-01-21T04:26:55.203Z,97.10
2019-01-21T04:30:01.493Z,97.10
2019-01-21T04:32:57.618Z,97.08
2019-01-21T04:35:51.420Z,97.08
2019-01-21T04:38:58.074Z,97.03
2019-01-21T04:41:38.686Z,98.00
2019-01-21T04:45:02.341Z,98.63
2019-01-21T04:48:07.504Z,98.55
2019-01-21T04:51:10.535Z,98.52
2019-01-21T04:54:03.878Z,98.52
2019-01-21T04:57:02.934Z,98.71
2019-01-21T05:00:23.840Z,98.71
2019-01-21T05:03:19.447Z,97.93
2019-01-21T05:06:16.454Z,98.26
2019-01-21T05:09:13.997Z,98.26
2019-01-21T05:12:08.130Z,98.04
2019-01-21T05:15:00.785Z,98.07
2019-01-21T05:17:54.767Z,98.18
2019-01-21T05:20:46.697Z,98.18
2019-01-21T05:23:52.823Z,97.93
2019-01-21T05:26:54.653Z,97.16
2019-01-21T05:29:48.508Z,97.16
2019-01-21T05:32:56.497Z,97.64
2019-01-21T05:36:05.520Z,97.94
2019-01-21T05:38:58.882Z,97.94
2019-01-21T05:42:16.674Z,97.39
2019-01-21T05:45:30.535Z,97.54
2019-01-21T05:48:48.706Z,96.97
2019-01-21T05:51:56.661Z,97.48
2019-01-21T05:54:58.454Z,96.77
2019-01-21T05:58:02.770Z,96.55
2019-01-21T06:01:03.347Z,96.55
2019-01-21T06:04:01.672Z,97.60
2019-01-21T06:07:13.071Z,98.13
2019-01-21T06:10:09.299Z,98.24
2019-01-21T06:13:05.471Z,97.70
2019-01-21T06:15:55.304Z,99.16
2019-01-21T06:19:03.624Z,98.59
2019-01-21T06:22:18.307Z,98.59
2019-01-21T06:25:20.489Z,98.54
2019-01-21T06:28:28.204Z,98.68
2019-01-21T06:31:34.175Z,98.68
2019-01-21T06:34:43.907Z,98.10
2019-01-21T06:37:42.509Z,97.74
2019-01-21T06:40:49.985Z,97.91
2019-01-21T06:43:54.362Z,98.15
2019-01-21T06:46:45.227Z,98.15
2019-01-21T06:49:39.659Z,98.45
2019-01-21T06:52:42.680Z,98.45
2019-01-21T06:55:26.796Z,98.41
2019-01-21T06:58:38.826Z,98.21
2019-01-21T07:01:51.751Z,97.95
2019-01-21T07:05:15.231Z,97.79
2019-01-21T07:08:24.018Z,97.79
2019-01-21T07:11:19.953Z,97.99
2019-01-21T07:14:07.525Z,98.28
2019-01-21T07:17:19.361Z,98.10
2019-01-21T07:20:19.435Z,97.93
2019-01-21T07:23:19.352Z,97.46
2019-01-21T07:26:28.020Z,97.69
2019-01-21T07:29:19.671Z,97.69
2019-01-21T07:32:10.888Z,98.34
2019-01-21T07:35:20.735Z,98.34
2019-01-21T07:38:29.571Z,98.50
2019-01-21T07:41:22.071Z,98.43
2019-01-21T07:44:19.424Z,97.66
2019-01-21T07:47:29.316Z,97.13
2019-01-21T07:50:13.383Z,98.34
2019-01-21T07:53:22.198Z,98.03
2019-01-21T07:56:09.883Z,98.03
2019-01-21T07:59:14.301Z,99.08
2019-01-21T08:01:49.088Z,99.70
2019-01-21T08:04:36.621Z,99.58
2019-01-21T08:07:30.592Z,99.28
2019-01-21T08:10:40.990Z,99.28
2019-01-21T08:13:39.200Z,100.00
2019-01-21T08:17:03.557Z,100.00
2019-01-21T08:19:56.307Z,100.00
2019-01-21T08:22:57.218Z,100.00
2019-01-21T08:26:07.986Z,100.00
2019-01-21T08:29:10.819Z,100.00
2019-01-21T08:32:03.283Z,100.00
2019-01-21T08:35:30.232Z,100.00
2019-01-21T08:38:23.797Z,100.00
2019-01-21T08:41:20.096Z,100.00
2019-01-21T08:44:24.568Z,100.00
2019-01-21T08:47:28.957Z,100.00
2019-01-21T08:50:14.784Z,100.00
2019-01-21T08:53:21.209Z,100.00
2019-01-21T08:56:39.618Z,100.00
2019-01-21T08:59:21.388Z,100.00
2019-01-21T09:02:20.851Z,100.00
2019-01-21T09:05:37.185Z,99.74
2019-01-21T09:08:40.478Z,99.74
2019-01-21T09:11:27.158Z,99.66
2019-01-21T09:14:23.826Z,99.91
2019-01-21T09:17:34.246Z,100.00
2019-01-21T09:20:37.454Z,100.00
2019-01-21T09:23:43.441Z,100.00
2019-01-21T09:26:32.400Z,98.80
2019-01-21T09:29:18.907Z,98.51
2019-01-21T09:31:53.807Z,98.51
2019-01-21T09:34:29.562Z,98.54
2019-01-21T09:37:16.302Z,99.33
2019-01-21T09:40:07.927Z,99.55
2019-01-21T09:42:43.254Z,99.29
2019-01-21T09:45:53.735Z,99.72
2019-01-21T09:48:19.915Z,99.41
2019-01-21T09:50:47.845Z,98.96
2019-01-21T09:53:14.740Z,99.14
2019-01-21T09:55:44.946Z,98.11
2019-01-21T09:58:11.859Z,98.05
2019-01-21T10:00:39.111Z,98.37
2019-01-21T10:03:07.517Z,97.72
2019-01-21T10:05:35.781Z,97.51
2019-01-21T10:08:22.606Z,97.91
2019-01-21T10:11:28.296Z,98.02
2019-01-21T10:14:20.765Z,98.18
2019-01-21T10:17:14.944Z,97.45
2019-01-21T10:20:44.807Z,96.69
2019-01-21T10:23:43.965Z,96.21
2019-01-21T10:26:51.160Z,96.16
2019-01-21T10:29:32.506Z,96.78
2019-01-21T10:32:39.927Z,96.10
2019-01-21T10:35:47.065Z,95.78
2019-01-21T10:39:02.535Z,95.82
2019-01-21T10:42:04.984Z,94.70
2019-01-21T10:45:34.658Z,95.03
2019-01-21T10:48:12.083Z,94.78
2019-01-21T10:51:38.934Z,94.46
2019-01-21T10:54:31.381Z,95.24
2019-01-21T10:57:39.485Z,93.84
2019-01-21T11:00:53.479Z,93.79
2019-01-21T11:03:56.919Z,93.35
2019-01-21T11:06:43.978Z,93.63
2019-01-21T11:09:26.801Z,92.77
2019-01-21T11:12:36.057Z,91.12
2019-01-21T11:15:34.799Z,92.53
2019-01-21T11:18:42.375Z,90.95
2019-01-21T11:21:27.111Z,90.35
2019-01-21T11:24:31.219Z,89.73
2019-01-21T11:27:44.349Z,88.77
2019-01-21T11:30:45.220Z,89.48
2019-01-21T11:33:35.896Z,89.28
2019-01-21T11:36:46.526Z,90.81
2019-01-21T11:39:55.292Z,90.14
2019-01-21T11:42:48.416Z,88.56
2019-01-21T11:45:39.578Z,86.51
2019-01-21T11:48:40.614Z,88.10
2019-01-21T11:51:58.970Z,89.01
2019-01-21T11:54:58.822Z,88.41
2019-01-21T11:57:52.048Z,88.34
2019-01-21T12:00:51.656Z,89.61
2019-01-21T12:03:44.097Z,86.91
2019-01-21T12:06:16.640Z,87.05
2019-01-21T12:09:27.551Z,86.45
2019-01-21T12:12:13.577Z,87.43
2019-01-21T12:14:55.165Z,86.36
2019-01-21T12:18:00.439Z,86.18
2019-01-21T12:21:05.749Z,86.51
2019-01-21T12:23:51.401Z,85.96
2019-01-21T12:27:13.571Z,84.87
2019-01-21T12:30:07.570Z,82.89
2019-01-21T12:33:09.282Z,83.26
2019-01-21T12:35:45.603Z,83.18
2019-01-21T12:38:47.888Z,83.47
2019-01-21T12:41:47.074Z,82.60
2019-01-21T12:44:39.292Z,83.11
2019-01-21T12:47:48.245Z,80.59
2019-01-21T12:51:20.952Z,81.75
2019-01-21T12:54:16.128Z,83.40
2019-01-21T12:57:22.194Z,82.59
2019-01-21T13:00:26.927Z,81.04
2019-01-21T13:03:27.904Z,79.78
2019-01-21T13:06:37.962Z,79.62
2019-01-21T13:09:17.285Z,77.81
2019-01-21T13:11:57.440Z,78.61
2019-01-21T13:14:55.356Z,76.71
2019-01-21T13:17:35.352Z,79.40
2019-01-21T13:20:30.930Z,79.01
2019-01-21T13:23:31.451Z,77.02
2019-01-21T13:26:34.885Z,76.65
2019-01-21T13:29:24.311Z,77.88
2019-01-21T13:32:29.371Z,76.17
2019-01-21T13:35:36.188Z,78.62
2019-01-21T13:38:43.666Z,76.65
2019-01-21T13:41:48.152Z,77.04
2019-01-21T13:44:36.366Z,76.28
2019-01-21T13:47:31.976Z,75.53
2019-01-21T13:50:09.808Z,74.44
2019-01-21T13:53:14.120Z,75.23
2019-01-21T13:56:03.142Z,74.41
2019-01-21T13:59:08.836Z,75.34
2019-01-21T14:01:51.451Z,76.29
2019-01-21T14:04:41.736Z,75.89
2019-01-21T14:07:40.111Z,76.10
2019-01-21T14:10:36.015Z,76.65
2019-01-21T14:13:36.310Z,77.51
2019-01-21T14:17:06.156Z,78.25
2019-01-21T14:20:07.692Z,75.87
2019-01-21T14:22:57.426Z,76.22
2019-01-21T14:26:00.759Z,77.51
2019-01-21T14:29:12.109Z,77.62
2019-01-21T14:32:08.233Z,78.47
2019-01-21T14:35:06.741Z,78.83
2019-01-21T14:38:39.340Z,79.90
2019-01-21T14:41:47.964Z,79.58
2019-01-21T14:44:58.652Z,80.00
2019-01-21T14:48:02.318Z,80.10
2019-01-21T14:51:05.867Z,80.08
2019-01-21T14:53:47.322Z,80.43
2019-01-21T14:56:32.757Z,78.75
2019-01-21T14:59:14.447Z,79.29
2019-01-21T15:02:16.653Z,80.29
2019-01-21T15:05:14.910Z,80.43
2019-01-21T15:08:19.581Z,81.10
2019-01-21T15:11:46.189Z,81.31
2019-01-21T15:14:32.386Z,82.22
2019-01-21T15:17:32.133Z,82.02
2019-01-21T15:20:09.139Z,82.62
2019-01-21T15:22:45.364Z,82.67
2019-01-21T15:26:21.368Z,83.25
2019-01-21T15:29:08.324Z,83.78
2019-01-21T15:32:06.734Z,84.24
2019-01-21T15:35:26.491Z,84.61
2019-01-21T15:38:18.448Z,85.01
2019-01-21T15:41:27.222Z,85.18
2019-01-21T15:44:21.061Z,85.27
2019-01-21T15:47:44.909Z,85.68
2019-01-21T15:50:28.733Z,85.20
2019-01-21T15:53:49.644Z,85.33
2019-01-21T15:57:26.073Z,86.13
2019-01-21T16:00:38.624Z,86.26
2019-01-21T16:04:08.213Z,87.53
2019-01-21T16:07:05.465Z,88.00
2019-01-21T16:10:15.895Z,88.20
2019-01-21T16:13:33.709Z,88.28
2019-01-21T16:17:00.617Z,88.28
2019-01-21T16:19:40.567Z,88.65
2019-01-21T16:22:43.555Z,88.42
2019-01-21T16:25:48.242Z,88.98
2019-01-21T16:28:46.765Z,89.22
2019-01-21T16:31:36.511Z,89.20
2019-01-21T16:34:56.088Z,89.91
2019-01-21T16:37:42.698Z,90.09
2019-01-21T16:40:40.716Z,90.04
2019-01-21T16:43:07.692Z,89.79
2019-01-21T16:45:34.654Z,89.93
2019-01-21T16:48:01.697Z,90.82
2019-01-21T16:50:28.578Z,91.49
2019-01-21T16:52:55.511Z,91.32
2019-01-21T16:55:22.413Z,91.37
2019-01-21T16:57:49.321Z,91.42
2019-01-21T17:00:16.396Z,91.46
2019-01-21T17:02:43.299Z,91.45
2019-01-21T17:05:10.795Z,91.44
2019-01-21T17:07:37.665Z,91.48
2019-01-21T17:10:05.835Z,91.91
2019-01-21T17:12:32.722Z,91.81
2019-01-21T17:14:59.620Z,92.06
2019-01-21T17:17:26.516Z,92.21
2019-01-21T17:19:53.420Z,92.55
2019-01-21T17:22:20.442Z,92.65
2019-01-21T17:24:47.409Z,92.83
2019-01-21T17:27:14.287Z,92.69
2019-01-21T17:29:41.215Z,92.80
2019-01-21T17:32:08.202Z,92.92
2019-01-21T17:34:35.159Z,93.15
2019-01-21T17:37:02.080Z,93.33
2019-01-21T17:39:28.992Z,93.70
2019-01-21T17:41:55.901Z,93.89
2019-01-21T17:44:22.942Z,93.69
2019-01-21T17:46:49.862Z,93.53
2019-01-21T17:49:16.775Z,93.71
2019-01-21T17:51:43.719Z,93.85
2019-01-21T17:54:10.620Z,93.89
2019-01-21T17:56:37.538Z,93.65
2019-01-21T17:59:04.477Z,94.09
2019-01-21T18:01:31.433Z,93.99
2019-01-21T18:03:58.369Z,94.42
2019-01-21T18:06:25.323Z,94.88
2019-01-21T18:08:52.600Z,95.38
2019-01-21T18:11:19.500Z,95.93
2019-01-21T18:13:46.578Z,95.57
2019-01-21T18:16:13.712Z,95.24
2019-01-21T18:18:40.619Z,95.16
2019-01-21T18:21:07.598Z,95.43
2019-01-21T18:23:34.606Z,95.55
2019-01-21T18:26:01.571Z,95.57
2019-01-21T18:28:28.831Z,95.31
2019-01-21T18:30:55.745Z,95.36
2019-01-21T18:33:22.742Z,95.49
2019-01-21T18:35:49.667Z,95.34
2019-01-21T18:38:16.711Z,95.42
2019-01-21T18:40:43.888Z,95.22
2019-01-21T18:43:10.813Z,95.23
2019-01-21T18:45:37.837Z,95.16
2019-01-21T18:48:05.010Z,95.09
2019-01-21T18:50:31.949Z,95.23
2019-01-21T18:52:58.896Z,95.30
2019-01-21T18:55:26.461Z,95.48
2019-01-21T18:57:55.995Z,95.53
2019-01-21T19:00:23.775Z,95.73
2019-01-21T19:02:50.664Z,95.67
2019-01-21T19:05:17.918Z,95.69
2019-01-21T19:07:45.058Z,95.62
2019-01-21T19:10:12.349Z,96.29
2019-01-21T19:12:39.327Z,96.28
2019-01-21T19:15:10.472Z,96.35
2019-01-21T19:17:37.391Z,96.37
2019-01-21T19:20:05.586Z,96.74
2019-01-21T19:22:32.619Z,96.61
2019-01-21T19:24:59.923Z,97.09
2019-01-21T19:27:26.793Z,96.66
2019-01-21T19:29:53.905Z,96.93
2019-01-21T19:32:20.866Z,96.83
2019-01-21T19:34:47.836Z,96.70
2019-01-21T19:37:14.752Z,96.67
2019-01-21T19:39:41.649Z,96.87
2019-01-21T19:42:09.052Z,96.63
2019-01-21T19:44:35.973Z,96.86
2019-01-21T19:47:03.077Z,96.65
2019-01-21T19:49:30.097Z,96.61
2019-01-21T19:52:00.423Z,96.79
2019-01-21T19:54:26.161Z,97.10
2019-01-21T19:56:53.160Z,97.17
2019-01-21T19:59:20.203Z,97.53
2019-01-21T20:01:47.163Z,98.57
2019-01-21T20:04:14.107Z,98.42
2019-01-21T20:06:41.116Z,98.44
2019-01-21T20:09:08.098Z,99.35
2019-01-21T20:11:35.091Z,100.00
2019-01-21T20:14:02.064Z,100.00
2019-01-21T20:16:29.302Z,99.65
2019-01-21T20:18:56.240Z,99.29
2019-01-21T20:21:23.261Z,98.68
2019-01-21T20:23:50.266Z,98.52
2019-01-21T20:26:17.207Z,97.86
2019-01-21T20:28:44.119Z,97.87
2019-01-21T20:31:11.037Z,98.51
2019-01-21T20:33:37.985Z,98.30
2019-01-21T20:36:04.990Z,98.23
2019-01-21T20:38:31.925Z,98.23
2019-01-21T20:40:58.864Z,98.12
2019-01-21T20:43:25.802Z,98.55
2019-01-21T20:45:52.734Z,98.45
2019-01-21T20:48:19.696Z,98.28
2019-01-21T20:50:46.635Z,98.35
2019-01-21T20:53:13.624Z,97.83
2019-01-21T20:55:40.538Z,97.76
2019-01-21T20:58:07.485Z,98.08
2019-01-21T21:00:35.773Z,97.90
2019-01-21T21:03:02.876Z,97.53
2019-01-21T21:05:30.072Z,97.79
2019-01-21T21:07:57.062Z,97.94
2019-01-21T21:10:24.386Z,98.31
2019-01-21T21:12:51.462Z,98.00
2019-01-21T21:15:20.697Z,98.26
2019-01-21T21:17:47.956Z,98.22
2019-01-21T21:20:14.985Z,98.24
2019-01-21T21:22:41.909Z,98.18
2019-01-21T21:25:10.944Z,97.94
2019-01-21T21:27:38.052Z,97.87
2019-01-21T21:30:07.961Z,98.00
2019-01-21T21:32:34.867Z,97.96
2019-01-21T21:35:01.926Z,97.71
2019-01-21T21:37:29.115Z,98.01
2019-01-21T21:39:56.352Z,98.14
2019-01-21T21:42:23.277Z,98.71
2019-01-21T21:44:50.384Z,98.54
2019-01-21T21:47:17.433Z,98.65
2019-01-21T21:49:44.386Z,98.44
2019-01-21T21:52:11.336Z,98.35
2019-01-21T21:54:38.660Z,99.16
2019-01-21T21:57:05.587Z,99.72
2019-01-21T21:59:32.974Z,99.63
2019-01-21T22:02:00.035Z,99.14
2019-01-21T22:04:26.955Z,99.54
2019-01-21T22:06:53.891Z,99.19
2019-01-21T22:09:21.030Z,99.09
2019-01-21T22:11:47.946Z,98.69
2019-01-21T22:14:15.353Z,98.73
2019-01-21T22:16:42.329Z,98.84
2019-01-21T22:19:09.395Z,98.78
2019-01-21T22:21:36.391Z,98.23
2019-01-21T22:24:03.429Z,98.77
2019-01-21T22:26:30.347Z,98.77
2019-01-21T22:28:57.289Z,98.87
2019-01-21T22:31:24.189Z,98.70
2019-01-21T22:33:51.131Z,98.53
2019-01-21T22:36:18.036Z,98.87
2019-01-21T22:38:44.960Z,98.85
2019-01-21T22:41:11.856Z,98.85
2019-01-21T22:43:39.078Z,99.02
2019-01-21T22:46:05.993Z,99.84
2019-01-21T22:48:32.939Z,100.00
2019-01-21T22:50:59.890Z,100.00
2019-01-21T22:53:26.818Z,100.00
2019-01-21T22:55:53.903Z,100.00
2019-01-21T22:58:20.894Z,100.00
2019-01-21T23:00:55.471Z,100.00
2019-01-21T23:03:23.239Z,100.00
2019-01-21T23:05:50.181Z,100.00
2019-01-21T23:08:17.297Z,100.00
2019-01-21T23:10:44.234Z,100.00
2019-01-21T23:13:11.192Z,100.00
2019-01-21T23:15:38.162Z,100.00
2019-01-21T23:18:05.394Z,100.00
2019-01-21T23:20:32.487Z,100.00
2019-01-21T23:22:59.473Z,100.00
2019-01-21T23:25:26.417Z,100.00
2019-01-21T23:27:53.402Z,100.00
2019-01-21T23:30:20.877Z,100.00
2019-01-21T23:32:47.765Z,100.00
2019-01-21T23:35:14.734Z,100.00
2019-01-21T23:37:41.657Z,100.00
2019-01-21T23:40:09.030Z,100.00
2019-01-21T23:42:35.984Z,100.00
2019-01-21T23:45:04.235Z,100.00
2019-01-21T23:47:31.138Z,100.00
2019-01-21T23:49:58.068Z,100.00
2019-01-21T23:52:25.026Z,100.00
2019-01-21T23:54:52.262Z,100.00
2019-01-21T23:57:19.176Z,100.00
2019-01-21T23:59:46.090Z,100.00
